< < Back
Terminal Aerodrome Forecast


Current Version              Previous Versions:   1  2  3  4  5  6  7  8  9  

Terminal Aerodrome Forecast

554
FTUS42 KGSP 242320
TAFAVL
TAF
KAVL 242320Z 2500/2524 34005KT P6SM FEW200
     FM250600 34002KT P6SM FEW040
     FM251600 34007KT P6SM SKC=



Latest METAR

285
SAUS70 KWBC 251400 RRI
MTRAVL
METAR KAVL 251354Z 35006KT 10SM CLR 11/03 A3011 RMK AO2 SLP186
T01110033


USA.gov is the U.S. government's official web portal to all federal, state and local government web resources and services.